Airfield :
LOGIN :

Register | Disclaimer

   EN    FR    IT 

 










Legend :    VFR   Marginal VFR   IFR   Intensive IFR   Very Intensive IFR
Visi :
Ceiling :
>= 8 km
>= 3000ft
5 to 8 km
1000 to 3000 ft
1500m to 5 km
500 to 1000 ft
800 to 1500m
200 to 500 ft
< 800m
< 200 ft
Symbols :   Thunderstorms  Fog  Heavy snow  Heavy precipitations  Wind > 20 kt
SIGMETs :     Misc.  Thunderstorms  Icing  Turbulence  Mountain Waves  Volcanic Ashes






- Airport Elevation : 36 ft
- IATA code : GJL


DAAV - Jijel Ferhat Abbas

CURRENT METAR :
  • 080200Z 17002KT 8000 -RA FEW020 BKN033 12/11 Q1021

EXPIRED METARs :
  • 080100Z 18004KT 9999 FEW020 BKN033 12/11 Q1020
  • 080000Z 00000KT 9999 FEW020 BKN033 12/11 Q1021

TAF TAF DAAV
Valid from the 08 at 00:00 until the 09 at 00:00 UTC


072300Z 0800/0824 16008KT 9999 SCT023 BKN100
PROB30
TEMPO 0800/0810 5000 -RA FEW020CB
TEMPO 0810/0818 4000 -TSRA FEW020CB



MET'MAP, your aeronautical weather chart ! - Copyright ORBIFLY December 2007 - Disclaimer

ORBIFLY MET'MAP TEAM :

Programming & Development : Alexandra Zaïnal
Concept & original design : Baudouin d'Aumeries
Assistance for programming : Marc-Olivier Méhu
Technical & hardware support : Manuel Goepfert

Contact : metmap@orbifly.com




SOURCES & CREDITS :

   NOAA